createdAt,value
2023-04-27T00:01:51.712Z,71.11
2023-04-27T00:04:41.778Z,70.94
2023-04-27T00:07:30.363Z,71.88
2023-04-27T00:10:18.691Z,71.17
2023-04-27T00:13:07.236Z,71.69
2023-04-27T00:15:55.750Z,71.40
2023-04-27T00:18:44.188Z,70.06
2023-04-27T00:21:33.927Z,70.63
2023-04-27T00:24:22.318Z,70.94
2023-04-27T00:27:13.432Z,70.68
2023-04-27T00:30:01.826Z,70.72
2023-04-27T00:32:50.339Z,71.10
2023-04-27T00:35:38.865Z,71.53
2023-04-27T00:38:28.696Z,70.51
2023-04-27T00:41:17.094Z,71.19
2023-04-27T00:44:05.612Z,71.92
2023-04-27T00:46:54.572Z,71.31
2023-04-27T00:49:44.618Z,71.69
2023-04-27T00:52:33.033Z,71.87
2023-04-27T00:55:23.025Z,72.92
2023-04-27T00:58:11.898Z,72.38
2023-04-27T01:01:00.479Z,71.84
2023-04-27T01:03:49.160Z,72.00
2023-04-27T01:06:37.646Z,72.90
2023-04-27T01:09:26.053Z,73.02
2023-04-27T01:12:15.889Z,73.80
2023-04-27T01:15:04.749Z,72.97
2023-04-27T01:17:59.155Z,72.39
2023-04-27T01:20:49.832Z,72.37
2023-04-27T01:23:39.613Z,71.83
2023-04-27T01:26:28.072Z,72.78
2023-04-27T01:29:16.493Z,72.74
2023-04-27T01:32:05.728Z,71.66
2023-04-27T01:34:54.147Z,71.40
2023-04-27T01:37:42.608Z,72.17
2023-04-27T01:40:33.087Z,71.98
2023-04-27T01:43:21.452Z,71.90
2023-04-27T01:46:11.525Z,71.83
2023-04-27T01:48:59.901Z,71.80
2023-04-27T01:51:49.727Z,71.81
2023-04-27T01:54:38.095Z,72.35
2023-04-27T01:57:29.320Z,72.24
2023-04-27T02:00:18.629Z,71.64
2023-04-27T02:03:10.060Z,71.85
2023-04-27T02:05:58.788Z,71.62
2023-04-27T02:08:47.127Z,71.41
2023-04-27T02:11:35.537Z,71.47
2023-04-27T02:14:25.260Z,71.75
2023-04-27T02:17:13.738Z,71.70
2023-04-27T02:20:02.456Z,71.57
2023-04-27T02:22:50.868Z,71.76
2023-04-27T02:25:39.270Z,71.25
2023-04-27T02:28:27.750Z,71.73
2023-04-27T02:31:17.995Z,71.73
2023-04-27T02:34:07.771Z,72.07
2023-04-27T02:36:56.371Z,71.78
2023-04-27T02:39:44.752Z,72.31
2023-04-27T02:42:33.138Z,72.60
2023-04-27T02:45:21.465Z,73.04
2023-04-27T02:48:11.215Z,72.97
2023-04-27T02:50:59.794Z,72.64
2023-04-27T02:53:48.195Z,72.26
2023-04-27T02:56:36.629Z,71.16
2023-04-27T02:59:25.106Z,72.09
2023-04-27T03:02:13.670Z,71.89
2023-04-27T03:05:04.826Z,71.82
2023-04-27T03:07:53.167Z,71.82
2023-04-27T03:10:41.643Z,72.91
2023-04-27T03:13:31.516Z,72.29
2023-04-27T03:16:21.099Z,71.54
2023-04-27T03:19:09.518Z,71.50
2023-04-27T03:21:59.219Z,71.81
2023-04-27T03:24:47.578Z,71.69
2023-04-27T03:27:37.636Z,71.94
2023-04-27T03:30:26.002Z,72.11
2023-04-27T03:33:14.437Z,72.45
2023-04-27T03:36:04.426Z,72.42
2023-04-27T03:38:54.148Z,72.21
2023-04-27T03:41:42.486Z,72.02
2023-04-27T03:44:33.553Z,72.28
2023-04-27T03:47:22.020Z,72.61
2023-04-27T03:50:11.413Z,72.72
2023-04-27T03:52:59.772Z,72.55
2023-04-27T03:55:49.636Z,73.00
2023-04-27T03:58:38.246Z,73.07
2023-04-27T04:01:36.421Z,73.00
2023-04-27T04:04:24.932Z,73.04
2023-04-27T04:07:13.568Z,73.15
2023-04-27T04:10:02.032Z,73.09
2023-04-27T04:12:51.900Z,73.33
2023-04-27T04:15:40.377Z,73.33
2023-04-27T04:18:29.281Z,73.20
2023-04-27T04:21:17.719Z,73.33
2023-04-27T04:24:06.486Z,73.49
2023-04-27T04:26:55.075Z,74.05
2023-04-27T04:29:44.823Z,74.27
2023-04-27T04:32:33.807Z,74.14
2023-04-27T04:35:22.196Z,74.84
2023-04-27T04:38:11.100Z,75.29
2023-04-27T04:41:01.214Z,75.16
2023-04-27T04:43:52.837Z,75.91
2023-04-27T04:46:42.690Z,76.15
2023-04-27T04:49:31.059Z,76.46
2023-04-27T04:52:19.424Z,76.72
2023-04-27T04:55:08.449Z,76.89
2023-04-27T04:57:56.837Z,76.21
2023-04-27T05:00:45.853Z,76.53
2023-04-27T05:03:35.655Z,76.47
2023-04-27T05:06:24.119Z,77.04
2023-04-27T05:09:14.002Z,76.37
2023-04-27T05:12:02.973Z,75.44
2023-04-27T05:14:52.502Z,76.25
2023-04-27T05:17:40.959Z,76.34
2023-04-27T05:20:30.727Z,75.74
2023-04-27T05:23:19.093Z,76.00
2023-04-27T05:26:12.828Z,74.86
2023-04-27T05:29:01.335Z,74.72
2023-04-27T05:31:49.805Z,73.78
2023-04-27T05:34:38.248Z,74.96
2023-04-27T05:37:27.934Z,75.19
2023-04-27T05:40:16.835Z,74.67
2023-04-27T05:43:05.709Z,74.02
2023-04-27T05:45:54.957Z,74.48
2023-04-27T05:48:43.394Z,74.62
2023-04-27T05:51:32.049Z,74.73
2023-04-27T05:54:21.924Z,74.72
2023-04-27T05:57:10.256Z,74.51
2023-04-27T05:59:58.758Z,73.92
2023-04-27T06:02:47.186Z,73.48
2023-04-27T06:05:35.904Z,74.24
2023-04-27T06:08:24.504Z,74.48
2023-04-27T06:11:14.226Z,74.73
2023-04-27T06:14:02.622Z,73.94
2023-04-27T06:16:51.180Z,72.85
2023-04-27T06:19:39.583Z,73.08
2023-04-27T06:22:28.250Z,72.65
2023-04-27T06:25:16.593Z,72.00
2023-04-27T06:28:06.622Z,72.61
2023-04-27T06:30:55.184Z,71.98
2023-04-27T06:33:43.575Z,72.29
2023-04-27T06:36:32.126Z,72.05
2023-04-27T06:39:20.458Z,71.84
2023-04-27T06:42:08.894Z,72.17
2023-04-27T06:44:58.752Z,72.08
2023-04-27T06:47:47.158Z,73.08
2023-04-27T06:50:35.536Z,71.87
2023-04-27T06:53:24.017Z,71.88
2023-04-27T06:56:13.138Z,71.26
2023-04-27T06:59:01.489Z,69.87
2023-04-27T07:01:51.881Z,69.99
2023-04-27T07:04:40.482Z,69.61
2023-04-27T07:07:29.028Z,69.19
2023-04-27T07:10:17.473Z,69.82
2023-04-27T07:13:08.815Z,68.61
2023-04-27T07:15:58.829Z,68.71
2023-04-27T07:18:48.564Z,68.58
2023-04-27T07:21:37.041Z,68.19
2023-04-27T07:24:25.559Z,67.79
2023-04-27T07:27:15.066Z,68.61
2023-04-27T07:30:03.448Z,64.15
2023-04-27T07:32:54.569Z,65.18
2023-04-27T07:35:44.502Z,62.72
2023-04-27T07:38:32.834Z,65.46
2023-04-27T07:41:21.332Z,64.97
2023-04-27T07:44:09.671Z,65.47
2023-04-27T07:46:58.596Z,62.41
2023-04-27T07:49:47.231Z,62.35
2023-04-27T07:52:37.303Z,62.86
2023-04-27T07:55:26.536Z,62.50
2023-04-27T07:58:14.944Z,63.41
2023-04-27T08:01:03.330Z,63.78
2023-04-27T08:03:51.961Z,64.15
2023-04-27T08:06:41.181Z,63.01
2023-04-27T08:09:32.186Z,61.46
2023-04-27T08:12:20.815Z,62.94
2023-04-27T08:15:10.638Z,61.75
2023-04-27T08:17:59.412Z,60.13
2023-04-27T08:20:47.762Z,60.12
2023-04-27T08:23:37.171Z,60.02
2023-04-27T08:26:27.185Z,59.34
2023-04-27T08:29:27.100Z,59.52
2023-04-27T08:32:17.153Z,59.52
2023-04-27T08:35:06.249Z,58.78
2023-04-27T08:37:55.420Z,58.02
2023-04-27T08:40:44.777Z,53.83
2023-04-27T08:43:37.926Z,54.11
2023-04-27T08:46:27.656Z,52.12
2023-04-27T08:49:17.674Z,51.07
2023-04-27T08:52:12.068Z,51.70
2023-04-27T08:55:01.724Z,51.67
2023-04-27T08:57:57.806Z,49.28
2023-04-27T09:00:50.731Z,50.95
2023-04-27T09:03:41.355Z,53.71
2023-04-27T09:06:33.492Z,51.65
2023-04-27T09:09:25.938Z,53.87
2023-04-27T09:12:18.878Z,52.54
2023-04-27T09:15:08.691Z,51.50
2023-04-27T09:17:58.997Z,51.06
2023-04-27T09:20:48.032Z,51.46
2023-04-27T09:23:40.760Z,51.73
2023-04-27T09:26:31.496Z,50.93
2023-04-27T09:29:20.121Z,50.21
2023-04-27T09:32:18.018Z,47.70
2023-04-27T09:35:18.412Z,48.12
2023-04-27T09:38:06.829Z,44.49
2023-04-27T09:40:56.604Z,47.28
2023-04-27T09:43:45.793Z,46.78
2023-04-27T09:46:34.687Z,45.89
2023-04-27T09:49:23.598Z,49.20
2023-04-27T09:52:13.376Z,48.48
2023-04-27T09:55:03.389Z,44.92
2023-04-27T09:57:56.962Z,45.84
2023-04-27T10:00:53.248Z,45.78
2023-04-27T10:03:52.735Z,46.60
2023-04-27T10:06:58.030Z,48.80
2023-04-27T10:09:49.717Z,45.61
2023-04-27T10:12:38.111Z,46.63
2023-04-27T10:15:27.986Z,46.72
2023-04-27T10:18:27.158Z,46.12
2023-04-27T10:21:16.479Z,46.16
2023-04-27T10:24:09.537Z,44.96
2023-04-27T10:27:05.640Z,45.35
2023-04-27T10:29:54.250Z,44.31
2023-04-27T10:32:51.937Z,46.20
2023-04-27T10:35:42.045Z,44.99
2023-04-27T10:38:32.676Z,46.68
2023-04-27T10:41:21.116Z,46.66
2023-04-27T10:44:18.088Z,45.88
2023-04-27T10:47:19.867Z,44.59
2023-04-27T10:50:11.293Z,48.59
2023-04-27T10:53:02.566Z,47.74
2023-04-27T10:55:57.595Z,46.75
2023-04-27T10:58:49.352Z,47.36
2023-04-27T11:01:39.410Z,47.94
2023-04-27T11:04:38.392Z,45.18
2023-04-27T11:07:29.060Z,47.92
2023-04-27T11:10:18.561Z,46.81
2023-04-27T11:13:12.329Z,45.98
2023-04-27T11:16:01.337Z,44.61
2023-04-27T11:18:51.266Z,47.07
2023-04-27T11:21:39.827Z,44.75
2023-04-27T11:24:28.213Z,45.65
2023-04-27T11:27:16.622Z,46.59
2023-04-27T11:30:07.500Z,45.81
2023-04-27T11:32:55.963Z,45.12
2023-04-27T11:35:46.157Z,45.26
2023-04-27T11:38:36.135Z,46.30
2023-04-27T11:41:24.631Z,45.62
2023-04-27T11:44:13.823Z,46.47
2023-04-27T11:47:02.720Z,42.89
2023-04-27T11:49:51.716Z,44.99
2023-04-27T11:52:41.794Z,45.22
2023-04-27T11:55:30.690Z,44.85
2023-04-27T11:58:19.566Z,47.60
2023-04-27T12:01:10.157Z,44.58
2023-04-27T12:04:01.531Z,44.15
2023-04-27T12:06:51.589Z,43.62
2023-04-27T12:09:42.072Z,46.32
2023-04-27T12:12:31.354Z,43.17
2023-04-27T12:15:19.694Z,45.09
2023-04-27T12:18:08.876Z,46.99
2023-04-27T12:20:59.007Z,44.45
2023-04-27T12:23:51.696Z,42.17
2023-04-27T12:26:41.725Z,41.63
2023-04-27T12:29:32.093Z,45.07
2023-04-27T12:32:20.559Z,45.87
2023-04-27T12:35:10.084Z,43.88
2023-04-27T12:37:58.684Z,40.84
2023-04-27T12:40:47.080Z,42.56
2023-04-27T12:43:38.282Z,43.60
2023-04-27T12:46:26.813Z,42.51
2023-04-27T12:49:15.368Z,43.21
2023-04-27T12:52:03.746Z,43.77
2023-04-27T12:54:57.659Z,42.28
2023-04-27T12:57:46.276Z,42.74
2023-04-27T13:00:36.070Z,42.51
2023-04-27T13:03:24.640Z,42.94
2023-04-27T13:06:13.204Z,44.03
2023-04-27T13:09:02.518Z,41.41
2023-04-27T13:11:52.756Z,41.77
2023-04-27T13:14:42.446Z,42.34
2023-04-27T13:17:32.148Z,43.50
2023-04-27T13:20:20.527Z,40.64
2023-04-27T13:23:08.914Z,41.22
2023-04-27T13:25:57.255Z,43.12
2023-04-27T13:28:46.174Z,42.90
2023-04-27T13:31:34.654Z,42.92
2023-04-27T13:34:24.543Z,41.26
2023-04-27T13:37:12.959Z,41.46
2023-04-27T13:40:01.344Z,43.11
2023-04-27T13:42:49.839Z,41.80
2023-04-27T13:45:39.695Z,43.23
2023-04-27T13:48:28.434Z,44.66
2023-04-27T13:51:18.178Z,41.95
2023-04-27T13:54:06.618Z,44.08
2023-04-27T13:56:55.002Z,41.94
2023-04-27T13:59:43.324Z,44.24
2023-04-27T14:02:32.165Z,42.82
2023-04-27T14:05:20.534Z,41.36
2023-04-27T14:08:10.357Z,41.66
2023-04-27T14:10:59.888Z,41.29
2023-04-27T14:13:48.502Z,39.50
2023-04-27T14:16:36.942Z,40.44
2023-04-27T14:19:25.458Z,38.16
2023-04-27T14:22:13.842Z,38.89
2023-04-27T14:25:03.658Z,39.21
2023-04-27T14:27:52.059Z,40.15
2023-04-27T14:30:40.591Z,37.05
2023-04-27T14:33:29.055Z,38.69
2023-04-27T14:36:18.245Z,40.56
2023-04-27T14:39:07.249Z,39.79
2023-04-27T14:41:57.282Z,36.69
2023-04-27T14:44:47.168Z,38.50
2023-04-27T14:47:36.499Z,39.68
2023-04-27T14:50:25.164Z,37.86
2023-04-27T14:53:13.533Z,41.85
2023-04-27T14:56:01.918Z,41.02
2023-04-27T14:58:51.678Z,41.31
2023-04-27T15:01:40.452Z,39.91
2023-04-27T15:04:28.996Z,38.86
2023-04-27T15:07:17.397Z,39.52
2023-04-27T15:10:07.013Z,38.74
2023-04-27T15:12:55.490Z,41.20
2023-04-27T15:15:46.107Z,38.19
2023-04-27T15:18:35.394Z,37.11
2023-04-27T15:21:23.874Z,37.87
2023-04-27T15:24:12.208Z,39.20
2023-04-27T15:27:00.546Z,38.16
2023-04-27T15:29:49.189Z,38.79
2023-04-27T15:32:39.168Z,39.62
2023-04-27T15:35:27.584Z,41.04
2023-04-27T15:38:17.867Z,36.43
2023-04-27T15:41:06.512Z,35.35
2023-04-27T15:43:54.996Z,38.28
2023-04-27T15:46:43.364Z,39.38
2023-04-27T15:49:39.907Z,36.74
2023-04-27T15:52:34.847Z,37.35
2023-04-27T15:55:23.546Z,37.59
2023-04-27T15:58:11.945Z,38.37
2023-04-27T16:01:00.653Z,37.84
2023-04-27T16:03:49.198Z,37.14
2023-04-27T16:06:39.292Z,37.62
2023-04-27T16:09:27.720Z,39.72
2023-04-27T16:12:16.542Z,37.74
2023-04-27T16:15:06.406Z,38.52
2023-04-27T16:17:55.837Z,39.63
2023-04-27T16:20:44.443Z,39.35
2023-04-27T16:23:34.171Z,39.37
2023-04-27T16:26:22.613Z,38.89
2023-04-27T16:29:11.530Z,38.45
2023-04-27T16:32:00.356Z,37.98
2023-04-27T16:34:48.909Z,38.34
2023-04-27T16:37:37.295Z,38.59
2023-04-27T16:40:27.064Z,38.89
2023-04-27T16:43:15.629Z,39.69
2023-04-27T16:46:03.981Z,39.62
2023-04-27T16:48:52.420Z,39.00
2023-04-27T16:51:40.904Z,40.51
2023-04-27T16:54:29.248Z,39.09
2023-04-27T16:57:20.076Z,40.16
2023-04-27T17:00:10.728Z,40.21
2023-04-27T17:02:59.156Z,41.01
2023-04-27T17:05:47.805Z,40.72
2023-04-27T17:08:36.144Z,39.73
2023-04-27T17:11:24.676Z,41.04
2023-04-27T17:14:14.892Z,40.42
2023-04-27T17:17:03.243Z,41.82
2023-04-27T17:19:51.587Z,42.27
2023-04-27T17:22:39.995Z,42.09
2023-04-27T17:25:28.438Z,40.79
2023-04-27T17:28:16.825Z,40.75
2023-04-27T17:31:07.015Z,41.14
2023-04-27T17:33:55.433Z,42.70
2023-04-27T17:36:44.033Z,41.58
2023-04-27T17:39:32.449Z,42.05
2023-04-27T17:42:21.173Z,41.54
2023-04-27T17:45:10.777Z,43.03
2023-04-27T17:48:00.679Z,43.74
2023-04-27T17:50:49.001Z,42.74
2023-04-27T17:53:37.329Z,41.66
2023-04-27T17:56:25.650Z,41.95
2023-04-27T17:59:14.188Z,42.46
2023-04-27T18:02:03.106Z,42.94
2023-04-27T18:04:52.912Z,42.82
2023-04-27T18:07:41.454Z,42.72
2023-04-27T18:10:29.783Z,43.37
2023-04-27T18:13:18.123Z,43.17
2023-04-27T18:16:06.910Z,43.70
2023-04-27T18:18:55.351Z,44.38
2023-04-27T18:21:45.057Z,44.69
2023-04-27T18:24:33.427Z,45.15
2023-04-27T18:27:21.823Z,46.70
2023-04-27T18:30:10.487Z,47.17
2023-04-27T18:32:59.083Z,47.57
2023-04-27T18:35:47.520Z,48.01
2023-04-27T18:38:37.312Z,48.14
2023-04-27T18:41:25.976Z,47.86
2023-04-27T18:44:15.712Z,48.43
2023-04-27T18:47:04.637Z,49.04
2023-04-27T18:49:52.960Z,49.18
2023-04-27T18:52:41.381Z,49.95
2023-04-27T18:55:31.599Z,50.39
2023-04-27T18:58:19.970Z,50.37
2023-04-27T19:01:08.477Z,50.64
2023-04-27T19:03:57.972Z,50.65
2023-04-27T19:06:47.646Z,51.30
2023-04-27T19:09:36.111Z,50.77
2023-04-27T19:12:26.070Z,51.40
2023-04-27T19:15:15.473Z,52.20
2023-04-27T19:18:10.650Z,52.44
2023-04-27T19:20:59.958Z,52.90
2023-04-27T19:23:48.296Z,53.30
2023-04-27T19:26:36.793Z,53.63
2023-04-27T19:29:26.803Z,54.38
2023-04-27T19:32:15.189Z,54.11
2023-04-27T19:35:03.719Z,54.30
2023-04-27T19:37:52.162Z,54.32
2023-04-27T19:40:40.638Z,54.71
2023-04-27T19:43:29.131Z,54.95
2023-04-27T19:46:18.989Z,55.50
2023-04-27T19:49:07.578Z,55.41
2023-04-27T19:51:55.993Z,55.66
2023-04-27T19:54:44.342Z,55.70
2023-04-27T19:57:32.802Z,56.08
2023-04-27T20:00:21.662Z,56.25
2023-04-27T20:03:12.708Z,56.59
2023-04-27T20:06:02.060Z,57.01
2023-04-27T20:08:51.019Z,57.07
2023-04-27T20:11:39.575Z,57.94
2023-04-27T20:14:30.060Z,57.88
2023-04-27T20:17:18.530Z,58.34
2023-04-27T20:20:11.464Z,58.43
2023-04-27T20:23:00.149Z,58.70
2023-04-27T20:25:48.610Z,58.84
2023-04-27T20:28:37.001Z,60.13
2023-04-27T20:31:26.021Z,60.70
2023-04-27T20:34:14.774Z,61.40
2023-04-27T20:37:05.377Z,61.26
2023-04-27T20:39:53.926Z,61.76
2023-04-27T20:42:42.509Z,61.93
2023-04-27T20:45:31.164Z,62.81
2023-04-27T20:48:19.705Z,62.92
2023-04-27T20:51:08.128Z,63.77
2023-04-27T20:53:58.326Z,63.10
2023-04-27T20:56:46.922Z,63.04
2023-04-27T20:59:35.504Z,63.14
2023-04-27T21:02:24.039Z,63.02
2023-04-27T21:05:12.480Z,62.49
2023-04-27T21:08:00.954Z,62.39
2023-04-27T21:10:50.756Z,62.46
2023-04-27T21:13:39.403Z,63.66
2023-04-27T21:16:27.862Z,63.56
2023-04-27T21:19:17.000Z,63.53
2023-04-27T21:22:05.542Z,63.37
2023-04-27T21:24:53.914Z,63.81
2023-04-27T21:27:43.772Z,63.48
2023-04-27T21:30:32.171Z,63.57
2023-04-27T21:33:20.759Z,64.05
2023-04-27T21:36:09.445Z,63.65
2023-04-27T21:38:57.886Z,64.14
2023-04-27T21:41:46.409Z,64.30
2023-04-27T21:44:36.248Z,64.08
2023-04-27T21:47:24.592Z,63.74
2023-04-27T21:50:13.202Z,64.16
2023-04-27T21:53:01.531Z,63.80
2023-04-27T21:55:51.238Z,63.80
2023-04-27T21:58:39.860Z,63.83
2023-04-27T22:01:29.641Z,64.69
2023-04-27T22:04:18.184Z,64.60
2023-04-27T22:07:07.993Z,64.46
2023-04-27T22:09:56.412Z,63.72
2023-04-27T22:12:46.862Z,63.60
2023-04-27T22:15:35.401Z,64.07
2023-04-27T22:18:25.158Z,63.78
2023-04-27T22:21:13.707Z,64.00
2023-04-27T22:24:02.099Z,64.31
2023-04-27T22:26:50.932Z,64.03
2023-04-27T22:29:39.551Z,65.16
2023-04-27T22:32:28.124Z,65.99
2023-04-27T22:35:26.243Z,65.85
2023-04-27T22:39:16.147Z,67.19
2023-04-27T22:42:04.644Z,66.22
2023-04-27T22:44:53.010Z,66.68
2023-04-27T22:47:41.612Z,66.96
2023-04-27T22:50:31.657Z,66.70
2023-04-27T22:53:20.018Z,67.20
2023-04-27T22:56:08.709Z,68.30
2023-04-27T22:58:57.117Z,67.03
2023-04-27T23:01:46.134Z,67.88
2023-04-27T23:04:34.821Z,67.48
2023-04-27T23:07:24.901Z,68.15
2023-04-27T23:10:15.249Z,67.83
2023-04-27T23:13:04.194Z,68.39
2023-04-27T23:15:54.465Z,68.81
2023-04-27T23:18:42.944Z,69.17
2023-04-27T23:21:31.872Z,69.18
2023-04-27T23:24:21.608Z,68.72
2023-04-27T23:27:09.949Z,68.52
2023-04-27T23:29:58.400Z,68.62
2023-04-27T23:32:46.977Z,69.18
2023-04-27T23:35:35.384Z,68.71
2023-04-27T23:38:23.854Z,69.54
2023-04-27T23:41:13.720Z,70.09
2023-04-27T23:44:02.084Z,70.46
2023-04-27T23:46:50.444Z,70.67
2023-04-27T23:49:38.818Z,70.69
2023-04-27T23:52:27.301Z,71.08
2023-04-27T23:55:16.105Z,71.07
2023-04-27T23:58:05.841Z,71.70
